sensor_id;sensor_type;location;lat;lon;timestamp;temperature;humidity
5576;DHT22;2810;50.134;8.626;2022-08-18T00:00:25;21.90;99.90
5576;DHT22;2810;50.134;8.626;2022-08-18T00:02:50;21.90;99.90
5576;DHT22;2810;50.134;8.626;2022-08-18T00:05:16;21.90;99.90
5576;DHT22;2810;50.134;8.626;2022-08-18T00:07:41;21.80;99.90
5576;DHT22;2810;50.134;8.626;2022-08-18T00:10:07;21.80;99.90
5576;DHT22;2810;50.134;8.626;2022-08-18T00:12:35;21.80;99.90
5576;DHT22;2810;50.134;8.626;2022-08-18T00:15:02;21.80;99.90
5576;DHT22;2810;50.134;8.626;2022-08-18T00:17:30;21.70;99.90
5576;DHT22;2810;50.134;8.626;2022-08-18T00:19:55;21.70;99.90
5576;DHT22;2810;50.134;8.626;2022-08-18T00:22:21;21.70;99.90
5576;DHT22;2810;50.134;8.626;2022-08-18T00:24:48;21.60;99.90
5576;DHT22;2810;50.134;8.626;2022-08-18T00:27:13;21.60;99.90
5576;DHT22;2810;50.134;8.626;2022-08-18T00:29:39;21.60;99.90
5576;DHT22;2810;50.134;8.626;2022-08-18T00:32:14;21.50;99.90
5576;DHT22;2810;50.134;8.626;2022-08-18T00:34:40;21.50;99.90
5576;DHT22;2810;50.134;8.626;2022-08-18T00:37:06;21.50;99.90
5576;DHT22;2810;50.134;8.626;2022-08-18T00:39:31;21.40;99.90
5576;DHT22;2810;50.134;8.626;2022-08-18T00:41:58;21.40;99.90
5576;DHT22;2810;50.134;8.626;2022-08-18T00:44:24;21.40;99.90
5576;DHT22;2810;50.134;8.626;2022-08-18T00:46:49;21.40;99.90
5576;DHT22;2810;50.134;8.626;2022-08-18T00:49:14;21.50;99.90
5576;DHT22;2810;50.134;8.626;2022-08-18T00:51:44;21.50;99.90
5576;DHT22;2810;50.134;8.626;2022-08-18T00:54:13;21.50;99.90
5576;DHT22;2810;50.134;8.626;2022-08-18T00:56:47;21.50;99.90
5576;DHT22;2810;50.134;8.626;2022-08-18T00:59:25;21.50;99.90
5576;DHT22;2810;50.134;8.626;2022-08-18T01:01:53;21.50;99.90
5576;DHT22;2810;50.134;8.626;2022-08-18T01:04:21;21.50;99.90
5576;DHT22;2810;50.134;8.626;2022-08-18T01:06:49;21.50;99.90
5576;DHT22;2810;50.134;8.626;2022-08-18T01:09:16;21.50;99.90
5576;DHT22;2810;50.134;8.626;2022-08-18T01:11:42;21.60;99.90
5576;DHT22;2810;50.134;8.626;2022-08-18T01:14:09;21.60;99.90
5576;DHT22;2810;50.134;8.626;2022-08-18T01:16:35;21.60;99.90
5576;DHT22;2810;50.134;8.626;2022-08-18T01:19:18;21.60;99.90
5576;DHT22;2810;50.134;8.626;2022-08-18T01:22:05;21.60;99.90
5576;DHT22;2810;50.134;8.626;2022-08-18T01:24:33;21.60;99.90
5576;DHT22;2810;50.134;8.626;2022-08-18T01:27:18;21.60;99.90
5576;DHT22;2810;50.134;8.626;2022-08-18T01:29:45;21.60;99.90
5576;DHT22;2810;50.134;8.626;2022-08-18T01:32:11;21.60;99.90
5576;DHT22;2810;50.134;8.626;2022-08-18T01:34:38;21.70;99.90
5576;DHT22;2810;50.134;8.626;2022-08-18T01:37:03;21.70;99.90
5576;DHT22;2810;50.134;8.626;2022-08-18T01:39:30;21.70;99.90
5576;DHT22;2810;50.134;8.626;2022-08-18T01:41:55;21.80;99.90
5576;DHT22;2810;50.134;8.626;2022-08-18T01:44:20;21.80;99.90
5576;DHT22;2810;50.134;8.626;2022-08-18T01:46:46;21.80;99.90
5576;DHT22;2810;50.134;8.626;2022-08-18T01:49:12;21.80;99.90
5576;DHT22;2810;50.134;8.626;2022-08-18T01:51:38;21.80;99.90
5576;DHT22;2810;50.134;8.626;2022-08-18T01:54:10;21.90;99.90
5576;DHT22;2810;50.134;8.626;2022-08-18T01:56:36;21.80;99.90
5576;DHT22;2810;50.134;8.626;2022-08-18T01:59:02;21.80;99.90
5576;DHT22;2810;50.134;8.626;2022-08-18T02:01:28;21.80;99.90
5576;DHT22;2810;50.134;8.626;2022-08-18T02:03:54;21.80;99.90
5576;DHT22;2810;50.134;8.626;2022-08-18T02:06:20;21.80;99.90
5576;DHT22;2810;50.134;8.626;2022-08-18T02:08:46;21.70;99.90
5576;DHT22;2810;50.134;8.626;2022-08-18T02:11:11;21.60;99.90
5576;DHT22;2810;50.134;8.626;2022-08-18T02:13:37;21.60;99.90
5576;DHT22;2810;50.134;8.626;2022-08-18T02:16:03;21.50;99.90
5576;DHT22;2810;50.134;8.626;2022-08-18T02:18:30;21.50;99.90
5576;DHT22;2810;50.134;8.626;2022-08-18T02:20:57;21.40;99.90
5576;DHT22;2810;50.134;8.626;2022-08-18T02:23:23;21.40;99.90
5576;DHT22;2810;50.134;8.626;2022-08-18T02:25:48;21.40;99.90
5576;DHT22;2810;50.134;8.626;2022-08-18T02:28:14;21.40;99.90
5576;DHT22;2810;50.134;8.626;2022-08-18T02:30:40;21.40;99.90
5576;DHT22;2810;50.134;8.626;2022-08-18T02:33:06;21.40;99.90
5576;DHT22;2810;50.134;8.626;2022-08-18T02:35:31;21.50;99.90
5576;DHT22;2810;50.134;8.626;2022-08-18T02:37:58;21.50;99.90
5576;DHT22;2810;50.134;8.626;2022-08-18T02:40:23;21.50;99.90
5576;DHT22;2810;50.134;8.626;2022-08-18T02:42:49;21.60;99.90
5576;DHT22;2810;50.134;8.626;2022-08-18T02:45:16;21.60;99.90
5576;DHT22;2810;50.134;8.626;2022-08-18T02:47:42;21.60;99.90
5576;DHT22;2810;50.134;8.626;2022-08-18T02:50:09;21.60;99.90
5576;DHT22;2810;50.134;8.626;2022-08-18T02:52:34;21.50;99.90
5576;DHT22;2810;50.134;8.626;2022-08-18T02:55:00;21.60;99.90
5576;DHT22;2810;50.134;8.626;2022-08-18T02:57:26;21.60;99.90
5576;DHT22;2810;50.134;8.626;2022-08-18T02:59:52;21.60;99.90
5576;DHT22;2810;50.134;8.626;2022-08-18T03:02:18;21.60;99.90
5576;DHT22;2810;50.134;8.626;2022-08-18T03:04:44;21.50;99.90
5576;DHT22;2810;50.134;8.626;2022-08-18T03:07:10;21.40;99.90
5576;DHT22;2810;50.134;8.626;2022-08-18T03:09:36;21.30;99.90
5576;DHT22;2810;50.134;8.626;2022-08-18T03:12:02;21.30;99.90
5576;DHT22;2810;50.134;8.626;2022-08-18T03:14:27;21.20;99.90
5576;DHT22;2810;50.134;8.626;2022-08-18T03:16:53;21.10;99.90
5576;DHT22;2810;50.134;8.626;2022-08-18T03:19:18;21.10;99.90
5576;DHT22;2810;50.134;8.626;2022-08-18T03:21:45;21.00;99.90
5576;DHT22;2810;50.134;8.626;2022-08-18T03:24:11;20.90;99.90
5576;DHT22;2810;50.134;8.626;2022-08-18T03:26:39;20.80;99.90
5576;DHT22;2810;50.134;8.626;2022-08-18T03:29:05;20.70;99.90
5576;DHT22;2810;50.134;8.626;2022-08-18T03:31:31;20.70;99.90
5576;DHT22;2810;50.134;8.626;2022-08-18T03:33:57;20.70;99.90
5576;DHT22;2810;50.134;8.626;2022-08-18T03:36:24;20.70;99.90
5576;DHT22;2810;50.134;8.626;2022-08-18T03:38:51;20.70;99.90
5576;DHT22;2810;50.134;8.626;2022-08-18T03:41:18;20.70;99.90
5576;DHT22;2810;50.134;8.626;2022-08-18T03:43:43;20.80;99.90
5576;DHT22;2810;50.134;8.626;2022-08-18T03:46:10;20.80;99.90
5576;DHT22;2810;50.134;8.626;2022-08-18T03:48:36;20.70;99.90
5576;DHT22;2810;50.134;8.626;2022-08-18T03:53:31;20.70;99.90
5576;DHT22;2810;50.134;8.626;2022-08-18T03:55:57;20.70;99.90
5576;DHT22;2810;50.134;8.626;2022-08-18T03:58:22;20.70;99.90
5576;DHT22;2810;50.134;8.626;2022-08-18T04:00:48;20.70;99.90
5576;DHT22;2810;50.134;8.626;2022-08-18T04:03:14;20.70;99.90
5576;DHT22;2810;50.134;8.626;2022-08-18T04:05:39;20.70;99.90
5576;DHT22;2810;50.134;8.626;2022-08-18T04:08:05;20.70;99.90
5576;DHT22;2810;50.134;8.626;2022-08-18T04:10:31;20.70;99.90
5576;DHT22;2810;50.134;8.626;2022-08-18T04:12:57;20.70;99.90
5576;DHT22;2810;50.134;8.626;2022-08-18T04:15:22;20.70;99.90
5576;DHT22;2810;50.134;8.626;2022-08-18T04:17:48;20.70;99.90
5576;DHT22;2810;50.134;8.626;2022-08-18T04:20:13;20.70;99.90
5576;DHT22;2810;50.134;8.626;2022-08-18T04:22:40;20.70;99.90
5576;DHT22;2810;50.134;8.626;2022-08-18T04:25:06;20.70;99.90
5576;DHT22;2810;50.134;8.626;2022-08-18T04:27:33;20.80;99.90
5576;DHT22;2810;50.134;8.626;2022-08-18T04:29:59;20.80;99.90
5576;DHT22;2810;50.134;8.626;2022-08-18T04:32:24;20.80;99.90
5576;DHT22;2810;50.134;8.626;2022-08-18T04:34:50;20.80;99.90
5576;DHT22;2810;50.134;8.626;2022-08-18T04:37:16;20.90;99.90
5576;DHT22;2810;50.134;8.626;2022-08-18T04:39:42;20.90;99.90
5576;DHT22;2810;50.134;8.626;2022-08-18T04:42:08;20.90;99.90
5576;DHT22;2810;50.134;8.626;2022-08-18T04:44:34;21.20;99.90
5576;DHT22;2810;50.134;8.626;2022-08-18T04:47:02;21.00;99.90
5576;DHT22;2810;50.134;8.626;2022-08-18T04:49:28;21.00;99.90
5576;DHT22;2810;50.134;8.626;2022-08-18T04:51:54;21.00;99.90
5576;DHT22;2810;50.134;8.626;2022-08-18T04:54:39;21.00;99.90
5576;DHT22;2810;50.134;8.626;2022-08-18T04:57:12;21.00;99.90
5576;DHT22;2810;50.134;8.626;2022-08-18T04:59:38;21.10;99.90
5576;DHT22;2810;50.134;8.626;2022-08-18T05:02:05;21.00;99.90
5576;DHT22;2810;50.134;8.626;2022-08-18T05:04:35;21.10;99.90
5576;DHT22;2810;50.134;8.626;2022-08-18T05:07:02;21.00;99.90
5576;DHT22;2810;50.134;8.626;2022-08-18T05:09:28;21.00;99.90
5576;DHT22;2810;50.134;8.626;2022-08-18T05:11:53;21.00;99.90
5576;DHT22;2810;50.134;8.626;2022-08-18T05:14:19;21.10;99.90
5576;DHT22;2810;50.134;8.626;2022-08-18T05:16:44;21.10;99.90
5576;DHT22;2810;50.134;8.626;2022-08-18T05:19:10;21.10;99.90
5576;DHT22;2810;50.134;8.626;2022-08-18T05:21:36;21.10;99.90
5576;DHT22;2810;50.134;8.626;2022-08-18T05:24:04;21.20;99.90
5576;DHT22;2810;50.134;8.626;2022-08-18T05:26:30;21.20;99.90
5576;DHT22;2810;50.134;8.626;2022-08-18T05:28:56;21.20;99.90
5576;DHT22;2810;50.134;8.626;2022-08-18T05:31:23;21.20;99.90
5576;DHT22;2810;50.134;8.626;2022-08-18T05:33:49;21.30;99.90
5576;DHT22;2810;50.134;8.626;2022-08-18T05:36:20;21.20;99.90
5576;DHT22;2810;50.134;8.626;2022-08-18T05:39:00;21.30;99.90
5576;DHT22;2810;50.134;8.626;2022-08-18T05:41:35;21.20;99.90
5576;DHT22;2810;50.134;8.626;2022-08-18T05:44:01;21.30;99.90
5576;DHT22;2810;50.134;8.626;2022-08-18T05:46:37;21.30;99.90
5576;DHT22;2810;50.134;8.626;2022-08-18T05:49:04;21.30;99.90
5576;DHT22;2810;50.134;8.626;2022-08-18T05:51:33;21.30;99.90
5576;DHT22;2810;50.134;8.626;2022-08-18T05:54:00;21.30;99.90
5576;DHT22;2810;50.134;8.626;2022-08-18T05:56:44;21.30;99.90
5576;DHT22;2810;50.134;8.626;2022-08-18T05:59:19;21.30;99.90
5576;DHT22;2810;50.134;8.626;2022-08-18T06:01:47;21.30;99.90
5576;DHT22;2810;50.134;8.626;2022-08-18T06:04:19;21.30;99.90
5576;DHT22;2810;50.134;8.626;2022-08-18T06:06:46;21.20;99.90
5576;DHT22;2810;50.134;8.626;2022-08-18T06:09:18;21.20;99.90
5576;DHT22;2810;50.134;8.626;2022-08-18T06:11:46;21.20;99.90
5576;DHT22;2810;50.134;8.626;2022-08-18T06:14:12;21.20;99.90
5576;DHT22;2810;50.134;8.626;2022-08-18T06:19:24;21.30;99.90
5576;DHT22;2810;50.134;8.626;2022-08-18T06:24:34;21.30;99.90
5576;DHT22;2810;50.134;8.626;2022-08-18T06:33:08;21.20;99.90
5576;DHT22;2810;50.134;8.626;2022-08-18T06:35:35;21.20;99.90
5576;DHT22;2810;50.134;8.626;2022-08-18T06:38:26;21.10;99.90
5576;DHT22;2810;50.134;8.626;2022-08-18T06:41:10;21.10;99.90
5576;DHT22;2810;50.134;8.626;2022-08-18T06:43:38;21.20;99.90
5576;DHT22;2810;50.134;8.626;2022-08-18T06:46:08;21.20;99.90
5576;DHT22;2810;50.134;8.626;2022-08-18T06:48:58;21.20;99.90
5576;DHT22;2810;50.134;8.626;2022-08-18T06:51:22;21.20;99.90
5576;DHT22;2810;50.134;8.626;2022-08-18T06:53:48;21.20;99.90
5576;DHT22;2810;50.134;8.626;2022-08-18T06:56:19;21.10;99.90
5576;DHT22;2810;50.134;8.626;2022-08-18T06:58:44;21.10;99.90
5576;DHT22;2810;50.134;8.626;2022-08-18T07:01:10;21.10;99.90
5576;DHT22;2810;50.134;8.626;2022-08-18T07:06:02;21.00;99.90
5576;DHT22;2810;50.134;8.626;2022-08-18T07:08:30;21.00;99.90
5576;DHT22;2810;50.134;8.626;2022-08-18T07:10:57;21.00;99.90
5576;DHT22;2810;50.134;8.626;2022-08-18T07:13:36;21.10;99.90
5576;DHT22;2810;50.134;8.626;2022-08-18T07:18:46;20.90;99.90
5576;DHT22;2810;50.134;8.626;2022-08-18T07:21:22;20.90;99.90
5576;DHT22;2810;50.134;8.626;2022-08-18T07:23:56;20.90;99.90
5576;DHT22;2810;50.134;8.626;2022-08-18T07:26:22;21.20;99.90
5576;DHT22;2810;50.134;8.626;2022-08-18T07:28:48;20.80;99.90
5576;DHT22;2810;50.134;8.626;2022-08-18T07:33:58;20.80;99.90
5576;DHT22;2810;50.134;8.626;2022-08-18T07:36:26;20.90;99.90
5576;DHT22;2810;50.134;8.626;2022-08-18T07:38:55;20.80;99.90
5576;DHT22;2810;50.134;8.626;2022-08-18T07:41:24;20.90;99.90
5576;DHT22;2810;50.134;8.626;2022-08-18T07:43:52;20.90;99.90
5576;DHT22;2810;50.134;8.626;2022-08-18T07:46:26;20.90;99.90
5576;DHT22;2810;50.134;8.626;2022-08-18T07:48:55;20.90;99.90
5576;DHT22;2810;50.134;8.626;2022-08-18T07:51:23;20.90;99.90
5576;DHT22;2810;50.134;8.626;2022-08-18T07:53:58;21.00;99.90
5576;DHT22;2810;50.134;8.626;2022-08-18T08:11:37;21.10;99.90
5576;DHT22;2810;50.134;8.626;2022-08-18T08:14:16;21.20;99.90
5576;DHT22;2810;50.134;8.626;2022-08-18T08:16:48;21.20;99.90
5576;DHT22;2810;50.134;8.626;2022-08-18T08:21:43;21.20;99.90
5576;DHT22;2810;50.134;8.626;2022-08-18T08:24:25;21.20;99.90
5576;DHT22;2810;50.134;8.626;2022-08-18T08:29:59;21.20;99.90
5576;DHT22;2810;50.134;8.626;2022-08-18T08:32:30;21.20;99.90
5576;DHT22;2810;50.134;8.626;2022-08-18T08:35:05;21.20;99.90
5576;DHT22;2810;50.134;8.626;2022-08-18T08:37:38;21.30;99.90
5576;DHT22;2810;50.134;8.626;2022-08-18T08:40:14;21.30;99.90
5576;DHT22;2810;50.134;8.626;2022-08-18T08:42:46;21.40;99.90
5576;DHT22;2810;50.134;8.626;2022-08-18T08:45:17;21.40;99.90
5576;DHT22;2810;50.134;8.626;2022-08-18T08:47:50;21.50;99.90
5576;DHT22;2810;50.134;8.626;2022-08-18T08:50:21;21.60;99.90
5576;DHT22;2810;50.134;8.626;2022-08-18T08:52:50;21.60;99.90
5576;DHT22;2810;50.134;8.626;2022-08-18T08:57:47;21.80;99.90
5576;DHT22;2810;50.134;8.626;2022-08-18T09:00:14;21.90;99.90
5576;DHT22;2810;50.134;8.626;2022-08-18T09:02:59;22.20;99.90
5576;DHT22;2810;50.134;8.626;2022-08-18T09:08:32;22.20;99.90
5576;DHT22;2810;50.134;8.626;2022-08-18T09:11:13;22.20;99.90
5576;DHT22;2810;50.134;8.626;2022-08-18T09:18:46;22.30;99.90
5576;DHT22;2810;50.134;8.626;2022-08-18T09:21:23;22.60;99.90
5576;DHT22;2810;50.134;8.626;2022-08-18T09:23:52;22.30;99.90
5576;DHT22;2810;50.134;8.626;2022-08-18T09:26:21;22.30;99.90
5576;DHT22;2810;50.134;8.626;2022-08-18T09:29:23;22.30;99.90
5576;DHT22;2810;50.134;8.626;2022-08-18T09:31:39;22.30;99.90
5576;DHT22;2810;50.134;8.626;2022-08-18T09:49:48;22.70;99.90
5576;DHT22;2810;50.134;8.626;2022-08-18T09:57:27;22.70;99.90
5576;DHT22;2810;50.134;8.626;2022-08-18T10:05:21;22.70;99.90
5576;DHT22;2810;50.134;8.626;2022-08-18T10:10:30;22.80;99.90
5576;DHT22;2810;50.134;8.626;2022-08-18T10:21:15;22.90;99.90
5576;DHT22;2810;50.134;8.626;2022-08-18T10:28:59;23.60;99.90
5576;DHT22;2810;50.134;8.626;2022-08-18T10:31:25;23.70;99.90
5576;DHT22;2810;50.134;8.626;2022-08-18T10:34:02;23.70;99.90
5576;DHT22;2810;50.134;8.626;2022-08-18T10:36:44;23.60;99.90
5576;DHT22;2810;50.134;8.626;2022-08-18T10:39:21;23.60;99.90
5576;DHT22;2810;50.134;8.626;2022-08-18T10:41:55;23.60;99.90
5576;DHT22;2810;50.134;8.626;2022-08-18T10:44:21;23.60;99.90
5576;DHT22;2810;50.134;8.626;2022-08-18T10:46:48;23.50;99.90
5576;DHT22;2810;50.134;8.626;2022-08-18T10:49:15;23.50;99.90
5576;DHT22;2810;50.134;8.626;2022-08-18T10:51:54;23.50;99.90
5576;DHT22;2810;50.134;8.626;2022-08-18T10:54:27;23.60;99.90
5576;DHT22;2810;50.134;8.626;2022-08-18T10:56:56;23.60;99.90
5576;DHT22;2810;50.134;8.626;2022-08-18T11:02:06;23.50;99.90
5576;DHT22;2810;50.134;8.626;2022-08-18T11:04:35;23.50;99.90
5576;DHT22;2810;50.134;8.626;2022-08-18T11:07:20;23.60;99.90
5576;DHT22;2810;50.134;8.626;2022-08-18T11:09:48;23.60;99.90
5576;DHT22;2810;50.134;8.626;2022-08-18T11:12:14;23.60;99.90
5576;DHT22;2810;50.134;8.626;2022-08-18T11:19:52;23.30;99.90
5576;DHT22;2810;50.134;8.626;2022-08-18T11:22:25;23.20;99.90
5576;DHT22;2810;50.134;8.626;2022-08-18T11:24:51;23.20;99.90
5576;DHT22;2810;50.134;8.626;2022-08-18T11:27:18;23.10;99.90
5576;DHT22;2810;50.134;8.626;2022-08-18T11:29:44;23.20;99.90
5576;DHT22;2810;50.134;8.626;2022-08-18T11:32:23;23.20;99.90
5576;DHT22;2810;50.134;8.626;2022-08-18T11:40:10;23.50;99.90
5576;DHT22;2810;50.134;8.626;2022-08-18T11:42:39;23.70;99.90
5576;DHT22;2810;50.134;8.626;2022-08-18T11:47:37;24.40;99.90
5576;DHT22;2810;50.134;8.626;2022-08-18T11:50:25;24.90;99.90
5576;DHT22;2810;50.134;8.626;2022-08-18T11:52:51;25.40;99.90
5576;DHT22;2810;50.134;8.626;2022-08-18T11:55:19;26.10;99.90
5576;DHT22;2810;50.134;8.626;2022-08-18T11:57:49;26.50;99.90
5576;DHT22;2810;50.134;8.626;2022-08-18T12:00:38;26.60;99.90
5576;DHT22;2810;50.134;8.626;2022-08-18T12:03:05;26.60;99.90
5576;DHT22;2810;50.134;8.626;2022-08-18T12:05:49;26.80;99.90
5576;DHT22;2810;50.134;8.626;2022-08-18T12:08:17;27.10;99.90
5576;DHT22;2810;50.134;8.626;2022-08-18T12:10:43;27.40;99.90
5576;DHT22;2810;50.134;8.626;2022-08-18T12:13:09;27.50;99.90
5576;DHT22;2810;50.134;8.626;2022-08-18T12:15:34;27.30;99.90
5576;DHT22;2810;50.134;8.626;2022-08-18T12:18:00;27.30;99.90
5576;DHT22;2810;50.134;8.626;2022-08-18T12:20:26;27.50;99.90
5576;DHT22;2810;50.134;8.626;2022-08-18T12:22:51;27.70;99.90
5576;DHT22;2810;50.134;8.626;2022-08-18T12:25:19;27.70;99.90
5576;DHT22;2810;50.134;8.626;2022-08-18T12:27:45;27.80;99.90
5576;DHT22;2810;50.134;8.626;2022-08-18T12:30:10;28.30;99.90
5576;DHT22;2810;50.134;8.626;2022-08-18T12:32:36;28.40;99.90
5576;DHT22;2810;50.134;8.626;2022-08-18T12:35:03;28.20;99.90
5576;DHT22;2810;50.134;8.626;2022-08-18T12:37:29;27.70;99.90
5576;DHT22;2810;50.134;8.626;2022-08-18T12:39:55;27.90;99.90
5576;DHT22;2810;50.134;8.626;2022-08-18T12:42:21;28.20;99.90
5576;DHT22;2810;50.134;8.626;2022-08-18T12:44:47;28.40;99.90
5576;DHT22;2810;50.134;8.626;2022-08-18T12:47:14;28.50;99.90
5576;DHT22;2810;50.134;8.626;2022-08-18T12:49:39;28.50;99.90
5576;DHT22;2810;50.134;8.626;2022-08-18T12:52:05;28.70;99.90
5576;DHT22;2810;50.134;8.626;2022-08-18T12:54:31;28.50;99.90
5576;DHT22;2810;50.134;8.626;2022-08-18T12:56:57;28.50;99.90
5576;DHT22;2810;50.134;8.626;2022-08-18T12:59:23;28.40;99.90
5576;DHT22;2810;50.134;8.626;2022-08-18T13:01:49;28.30;99.90
5576;DHT22;2810;50.134;8.626;2022-08-18T13:04:15;28.50;99.90
5576;DHT22;2810;50.134;8.626;2022-08-18T13:06:48;28.40;99.90
5576;DHT22;2810;50.134;8.626;2022-08-18T13:09:14;28.20;99.90
5576;DHT22;2810;50.134;8.626;2022-08-18T13:11:39;28.10;99.90
5576;DHT22;2810;50.134;8.626;2022-08-18T13:14:06;27.90;99.90
5576;DHT22;2810;50.134;8.626;2022-08-18T13:16:32;27.80;99.90
5576;DHT22;2810;50.134;8.626;2022-08-18T13:18:59;27.80;99.90
5576;DHT22;2810;50.134;8.626;2022-08-18T13:21:24;28.00;99.90
5576;DHT22;2810;50.134;8.626;2022-08-18T13:23:50;28.10;99.90
5576;DHT22;2810;50.134;8.626;2022-08-18T13:26:19;28.20;99.90
5576;DHT22;2810;50.134;8.626;2022-08-18T13:28:46;28.20;99.90
5576;DHT22;2810;50.134;8.626;2022-08-18T13:31:12;28.40;99.90
5576;DHT22;2810;50.134;8.626;2022-08-18T13:33:37;28.50;99.90
5576;DHT22;2810;50.134;8.626;2022-08-18T13:36:04;28.50;99.90
5576;DHT22;2810;50.134;8.626;2022-08-18T13:38:30;28.40;99.90
5576;DHT22;2810;50.134;8.626;2022-08-18T13:40:57;28.40;99.90
5576;DHT22;2810;50.134;8.626;2022-08-18T13:43:25;28.30;99.90
5576;DHT22;2810;50.134;8.626;2022-08-18T13:45:51;28.30;99.90
5576;DHT22;2810;50.134;8.626;2022-08-18T13:48:16;28.30;99.90
5576;DHT22;2810;50.134;8.626;2022-08-18T13:50:42;28.50;99.90
5576;DHT22;2810;50.134;8.626;2022-08-18T13:53:14;28.60;99.90
5576;DHT22;2810;50.134;8.626;2022-08-18T13:55:40;28.60;99.90
5576;DHT22;2810;50.134;8.626;2022-08-18T13:58:06;28.70;99.10
5576;DHT22;2810;50.134;8.626;2022-08-18T14:00:32;28.70;99.30
5576;DHT22;2810;50.134;8.626;2022-08-18T14:02:57;28.70;98.70
5576;DHT22;2810;50.134;8.626;2022-08-18T14:05:24;28.90;99.00
5576;DHT22;2810;50.134;8.626;2022-08-18T14:07:50;29.00;97.40
5576;DHT22;2810;50.134;8.626;2022-08-18T14:10:15;28.80;97.80
5576;DHT22;2810;50.134;8.626;2022-08-18T14:12:41;28.70;97.90
5576;DHT22;2810;50.134;8.626;2022-08-18T14:15:09;28.70;98.20
5576;DHT22;2810;50.134;8.626;2022-08-18T14:17:34;28.70;97.70
5576;DHT22;2810;50.134;8.626;2022-08-18T14:20:00;28.80;97.40
5576;DHT22;2810;50.134;8.626;2022-08-18T14:22:44;28.90;97.80
5576;DHT22;2810;50.134;8.626;2022-08-18T14:25:29;29.20;96.80
5576;DHT22;2810;50.134;8.626;2022-08-18T14:28:13;29.30;96.60
5576;DHT22;2810;50.134;8.626;2022-08-18T14:30:39;29.50;96.80
5576;DHT22;2810;50.134;8.626;2022-08-18T14:33:05;29.50;96.10
5576;DHT22;2810;50.134;8.626;2022-08-18T14:35:32;29.70;94.70
5576;DHT22;2810;50.134;8.626;2022-08-18T14:37:57;29.70;94.90
5576;DHT22;2810;50.134;8.626;2022-08-18T14:40:26;29.70;94.20
5576;DHT22;2810;50.134;8.626;2022-08-18T14:42:51;29.30;94.90
5576;DHT22;2810;50.134;8.626;2022-08-18T14:45:17;29.00;95.80
5576;DHT22;2810;50.134;8.626;2022-08-18T14:47:42;28.90;95.70
5576;DHT22;2810;50.134;8.626;2022-08-18T14:50:08;28.70;96.80
5576;DHT22;2810;50.134;8.626;2022-08-18T14:52:40;28.60;97.10
5576;DHT22;2810;50.134;8.626;2022-08-18T14:55:06;28.50;97.20
5576;DHT22;2810;50.134;8.626;2022-08-18T14:57:32;28.50;97.30
5576;DHT22;2810;50.134;8.626;2022-08-18T14:59:57;28.60;97.40
5576;DHT22;2810;50.134;8.626;2022-08-18T15:02:23;28.40;97.10
5576;DHT22;2810;50.134;8.626;2022-08-18T15:04:48;28.30;97.10
5576;DHT22;2810;50.134;8.626;2022-08-18T15:07:14;28.20;96.90
5576;DHT22;2810;50.134;8.626;2022-08-18T15:09:40;28.20;97.40
5576;DHT22;2810;50.134;8.626;2022-08-18T15:12:06;28.10;97.30
5576;DHT22;2810;50.134;8.626;2022-08-18T15:14:33;28.10;97.80
5576;DHT22;2810;50.134;8.626;2022-08-18T15:17:00;28.10;97.70
5576;DHT22;2810;50.134;8.626;2022-08-18T15:19:25;28.20;97.40
5576;DHT22;2810;50.134;8.626;2022-08-18T15:21:51;28.10;97.40
5576;DHT22;2810;50.134;8.626;2022-08-18T15:24:38;28.00;96.90
5576;DHT22;2810;50.134;8.626;2022-08-18T15:27:22;27.90;97.90
5576;DHT22;2810;50.134;8.626;2022-08-18T15:29:48;27.90;98.00
5576;DHT22;2810;50.134;8.626;2022-08-18T15:32:13;27.90;97.80
5576;DHT22;2810;50.134;8.626;2022-08-18T15:34:39;27.90;98.00
5576;DHT22;2810;50.134;8.626;2022-08-18T15:37:07;27.80;97.90
5576;DHT22;2810;50.134;8.626;2022-08-18T15:39:33;27.70;98.40
5576;DHT22;2810;50.134;8.626;2022-08-18T15:41:58;27.50;98.40
5576;DHT22;2810;50.134;8.626;2022-08-18T15:44:24;27.50;98.30
5576;DHT22;2810;50.134;8.626;2022-08-18T15:46:49;27.30;98.80
5576;DHT22;2810;50.134;8.626;2022-08-18T15:49:16;27.20;99.30
5576;DHT22;2810;50.134;8.626;2022-08-18T15:51:43;27.00;99.80
5576;DHT22;2810;50.134;8.626;2022-08-18T15:54:09;26.90;99.20
5576;DHT22;2810;50.134;8.626;2022-08-18T15:56:34;26.80;99.50
5576;DHT22;2810;50.134;8.626;2022-08-18T15:59:01;26.60;99.40
5576;DHT22;2810;50.134;8.626;2022-08-18T16:01:31;26.60;99.50
5576;DHT22;2810;50.134;8.626;2022-08-18T16:03:56;26.50;99.10
5576;DHT22;2810;50.134;8.626;2022-08-18T16:06:23;26.50;99.70
5576;DHT22;2810;50.134;8.626;2022-08-18T16:08:50;26.40;99.90
5576;DHT22;2810;50.134;8.626;2022-08-18T16:11:16;26.40;99.90
5576;DHT22;2810;50.134;8.626;2022-08-18T16:13:43;26.40;99.90
5576;DHT22;2810;50.134;8.626;2022-08-18T16:16:10;26.30;99.70
5576;DHT22;2810;50.134;8.626;2022-08-18T16:18:36;26.40;99.90
5576;DHT22;2810;50.134;8.626;2022-08-18T16:21:02;26.40;99.70
5576;DHT22;2810;50.134;8.626;2022-08-18T16:23:28;26.40;99.90
5576;DHT22;2810;50.134;8.626;2022-08-18T16:25:58;26.50;99.90
5576;DHT22;2810;50.134;8.626;2022-08-18T16:28:24;26.50;99.90
5576;DHT22;2810;50.134;8.626;2022-08-18T16:30:50;26.40;99.90
5576;DHT22;2810;50.134;8.626;2022-08-18T16:33:15;26.40;99.80
5576;DHT22;2810;50.134;8.626;2022-08-18T16:35:41;26.40;99.70
5576;DHT22;2810;50.134;8.626;2022-08-18T16:38:08;26.30;99.60
5576;DHT22;2810;50.134;8.626;2022-08-18T16:40:34;26.30;98.80
5576;DHT22;2810;50.134;8.626;2022-08-18T16:42:59;26.20;98.70
5576;DHT22;2810;50.134;8.626;2022-08-18T16:45:25;26.20;98.70
5576;DHT22;2810;50.134;8.626;2022-08-18T16:47:52;26.20;98.20
5576;DHT22;2810;50.134;8.626;2022-08-18T16:50:17;26.10;98.70
5576;DHT22;2810;50.134;8.626;2022-08-18T16:52:43;26.10;98.30
5576;DHT22;2810;50.134;8.626;2022-08-18T16:55:09;26.10;98.20
5576;DHT22;2810;50.134;8.626;2022-08-18T16:57:39;26.10;98.70
5576;DHT22;2810;50.134;8.626;2022-08-18T17:00:24;26.10;98.50
5576;DHT22;2810;50.134;8.626;2022-08-18T17:03:08;26.10;98.60
5576;DHT22;2810;50.134;8.626;2022-08-18T17:05:59;26.00;98.70
5576;DHT22;2810;50.134;8.626;2022-08-18T17:08:24;26.00;99.10
5576;DHT22;2810;50.134;8.626;2022-08-18T17:10:50;26.00;99.50
5576;DHT22;2810;50.134;8.626;2022-08-18T17:13:15;26.00;99.90
5576;DHT22;2810;50.134;8.626;2022-08-18T17:15:41;25.90;99.90
5576;DHT22;2810;50.134;8.626;2022-08-18T17:18:06;25.90;99.90
5576;DHT22;2810;50.134;8.626;2022-08-18T17:20:33;25.80;99.90
5576;DHT22;2810;50.134;8.626;2022-08-18T17:22:59;25.70;99.90
5576;DHT22;2810;50.134;8.626;2022-08-18T17:25:24;25.70;99.90
5576;DHT22;2810;50.134;8.626;2022-08-18T17:27:50;25.60;99.90
5576;DHT22;2810;50.134;8.626;2022-08-18T17:30:17;25.50;99.90
5576;DHT22;2810;50.134;8.626;2022-08-18T17:32:44;25.50;99.90
5576;DHT22;2810;50.134;8.626;2022-08-18T17:37:46;25.40;99.90
5576;DHT22;2810;50.134;8.626;2022-08-18T17:40:21;25.30;99.90
5576;DHT22;2810;50.134;8.626;2022-08-18T17:42:48;25.30;99.90
5576;DHT22;2810;50.134;8.626;2022-08-18T17:45:14;25.20;99.90
5576;DHT22;2810;50.134;8.626;2022-08-18T17:47:50;25.10;99.90
5576;DHT22;2810;50.134;8.626;2022-08-18T17:50:23;25.00;99.90
5576;DHT22;2810;50.134;8.626;2022-08-18T17:53:07;25.00;99.90
5576;DHT22;2810;50.134;8.626;2022-08-18T17:55:35;25.00;99.90
5576;DHT22;2810;50.134;8.626;2022-08-18T17:58:15;24.90;99.90
5576;DHT22;2810;50.134;8.626;2022-08-18T18:00:42;24.90;99.90
5576;DHT22;2810;50.134;8.626;2022-08-18T18:03:09;24.90;99.90